Time;durP1;ratioP1;P1;durP2;ratioP2;P2;SDS_P1;SDS_P2;PMS_P1;PMS_P2;Temp;Humidity;BMP_temperature;BMP_pressure;BME280_temperature;BME280_humidity;BME280_pressure;Samples;Min_cycle;Max_cycle;Signal;HPM_P1;HPM_P2
2021/10/09 14:01:15;;;;;;;17.42;10.10;;;;;;;17.00;47.29;100768.50;1089550;46;20031;-78
2021/10/09 14:02:17;;;;;;;11.73;8.85;;;;;;;17.08;47.30;100769.53;1087985;54;20045;-82
2021/10/09 14:03:21;;;;;;;14.00;9.10;;;;;;;17.12;47.25;100771.72;1087991;54;20034;-79
2021/10/09 14:04:25;;;;;;;16.27;9.60;;;;;;;17.10;46.64;100771.03;1087723;54;20626;-80
2021/10/09 14:05:27;;;;;;;13.75;9.02;;;;;;;17.13;46.66;100767.16;1087977;54;21217;-78
2021/10/09 14:06:31;;;;;;;14.43;8.60;;;;;;;17.14;46.84;100771.53;1087956;54;20709;-80
2021/10/09 14:07:32;;;;;;;14.23;9.10;;;;;;;17.19;46.67;100769.19;1087976;54;20042;-78
2021/10/09 14:08:37;;;;;;;11.68;8.48;;;;;;;17.28;46.48;100761.91;1087984;54;20038;-82
2021/10/09 14:09:39;;;;;;;14.15;8.70;;;;;;;17.28;45.89;100762.75;1092797;39;20204;-79
2021/10/09 14:10:43;;;;;;;13.88;8.65;;;;;;;17.29;46.19;100759.03;1087731;54;20796;-83
2021/10/09 14:11:47;;;;;;;12.43;8.52;;;;;;;17.36;46.19;100756.47;1087966;54;20037;-81
2021/10/09 14:12:48;;;;;;;12.65;8.05;;;;;;;17.38;46.04;100759.84;1087906;54;20042;-81
2021/10/09 14:13:53;;;;;;;11.65;7.68;;;;;;;17.48;46.16;100756.94;1087920;54;20042;-79
2021/10/09 14:14:54;;;;;;;12.45;8.63;;;;;;;17.48;45.84;100761.53;1087924;54;20026;-80
2021/10/09 14:15:59;;;;;;;12.52;8.23;;;;;;;17.52;45.65;100754.78;1087788;54;20034;-79
2021/10/09 14:17:03;;;;;;;15.13;9.40;;;;;;;17.52;44.86;100766.41;1088004;54;20788;-79
2021/10/09 14:18:09;;;;;;;14.90;9.45;;;;;;;17.50;44.84;100754.94;1087988;54;20038;-82
2021/10/09 14:19:13;;;;;;;15.27;8.85;;;;;;;17.42;44.96;100755.81;1089115;39;20673;-84
2021/10/09 14:20:14;;;;;;;13.18;8.63;;;;;;;17.37;44.83;100754.63;1087882;54;20030;-79
2021/10/09 14:21:19;;;;;;;16.05;9.35;;;;;;;17.41;44.64;100754.13;1087859;54;20110;-80
2021/10/09 14:22:21;;;;;;;12.70;8.68;;;;;;;17.33;45.20;100754.13;1087843;54;20717;-79
2021/10/09 14:23:26;;;;;;;14.88;8.88;;;;;;;17.31;45.08;100750.75;1088357;46;20102;-80
2021/10/09 14:24:27;;;;;;;18.27;9.20;;;;;;;17.27;45.05;100752.09;1087862;54;20034;-81
2021/10/09 14:25:34;;;;;;;12.20;8.45;;;;;;;17.39;44.92;100757.97;1087970;54;20424;-82
2021/10/09 14:26:38;;;;;;;13.70;8.63;;;;;;;17.34;45.21;100752.28;1087877;54;20031;-79
2021/10/09 14:27:40;;;;;;;12.55;7.82;;;;;;;17.33;44.76;100755.97;1087800;54;20031;-81
2021/10/09 14:28:44;;;;;;;11.98;8.30;;;;;;;17.38;44.85;100762.56;1087875;54;20038;-82
2021/10/09 14:29:46;;;;;;;11.27;8.60;;;;;;;17.28;44.41;100743.84;1087889;54;20045;-80
2021/10/09 14:30:51;;;;;;;13.10;8.57;;;;;;;17.36;44.27;100752.94;1087866;54;20026;-82
2021/10/09 14:31:54;;;;;;;13.77;9.07;;;;;;;17.30;44.34;100749.06;1087864;54;20046;-82
2021/10/09 14:33:00;;;;;;;14.60;7.45;;;;;;;17.23;44.10;100746.22;1087694;54;20030;-79
2021/10/09 14:34:02;;;;;;;11.90;7.60;;;;;;;17.25;44.36;100749.59;1087862;54;20034;-80
2021/10/09 14:35:07;;;;;;;11.95;7.70;;;;;;;17.24;44.43;100752.47;1088014;54;20035;-78
2021/10/09 14:36:11;;;;;;;10.98;7.97;;;;;;;17.23;44.58;100746.22;1087853;54;20025;-81
2021/10/09 14:37:13;;;;;;;12.68;8.07;;;;;;;17.26;44.53;100745.88;1088372;39;20603;-78
2021/10/09 14:38:17;;;;;;;13.15;8.23;;;;;;;17.31;44.34;100743.47;1087697;54;20026;-77
2021/10/09 14:39:19;;;;;;;15.80;8.32;;;;;;;17.27;44.49;100744.88;1087533;54;20034;-79
2021/10/09 14:40:23;;;;;;;12.27;8.05;;;;;;;17.30;44.17;100752.59;1087802;54;20057;-79
2021/10/09 14:41:25;;;;;;;13.18;7.68;;;;;;;17.31;44.44;100745.34;1088391;46;20904;-81
2021/10/09 14:42:29;;;;;;;11.60;6.93;;;;;;;17.37;44.91;100739.25;1087741;54;21486;-81
2021/10/09 14:43:34;;;;;;;9.43;6.88;;;;;;;17.42;44.59;100749.53;1088196;46;20058;-80
2021/10/09 14:44:36;;;;;;;10.68;7.20;;;;;;;17.49;44.49;100745.13;1088023;39;20708;-80
2021/10/09 14:45:43;;;;;;;14.63;7.85;;;;;;;17.49;44.59;100742.44;1087902;54;20030;-78
2021/10/09 14:48:13;;;;;;;15.05;8.18;;;;;;;17.51;44.34;100743.09;1087865;54;20034;-80
2021/10/09 14:49:19;;;;;;;13.60;7.82;;;;;;;17.44;44.39;100747.53;1087830;54;20053;-80
2021/10/09 14:50:34;;;;;;;14.25;7.72;;;;;;;17.37;44.54;100746.53;1087585;54;21899;-84
2021/10/09 14:51:39;;;;;;;14.05;7.60;;;;;;;17.45;44.43;100743.81;1087394;54;20038;-79
2021/10/09 14:52:55;;;;;;;11.60;7.72;;;;;;;17.32;44.58;100749.75;1087748;54;20057;-78
2021/10/09 14:55:34;;;;;;;11.13;6.95;;;;;;;17.30;44.71;100739.09;1087484;54;20041;-79
2021/10/09 15:17:45;;;;;;;13.73;6.95;;;;;;;17.15;45.32;100748.91;1087437;54;20034;-82
2021/10/09 15:18:50;;;;;;;13.30;7.88;;;;;;;17.19;45.52;100739.47;1087237;54;20034;-82
2021/10/09 15:19:55;;;;;;;9.63;6.40;;;;;;;17.22;45.43;100744.50;1087579;54;20034;-79
2021/10/09 15:20:59;;;;;;;9.90;7.07;;;;;;;17.24;45.31;100747.91;1087454;54;20019;-81
2021/10/09 15:22:01;;;;;;;12.02;7.50;;;;;;;17.19;45.49;100744.03;1087410;54;20035;-78
2021/10/09 15:23:06;;;;;;;11.60;6.60;;;;;;;17.24;45.15;100734.38;1087493;54;20034;-81
2021/10/09 15:24:11;;;;;;;11.13;6.95;;;;;;;17.25;45.18;100738.78;1087133;54;20082;-77
2021/10/09 15:25:14;;;;;;;9.43;6.60;;;;;;;17.22;45.34;100744.50;1087500;54;20030;-81
2021/10/09 15:26:18;;;;;;;11.57;6.57;;;;;;;17.26;45.22;100737.75;1087479;54;20030;-79
2021/10/09 15:27:19;;;;;;;10.13;6.97;;;;;;;17.23;45.76;100739.97;1087452;54;20170;-79
2021/10/09 15:28:23;;;;;;;13.63;7.90;;;;;;;17.20;45.98;100745.72;1087533;54;20037;-80
2021/10/09 15:29:25;;;;;;;10.88;7.20;;;;;;;17.18;46.15;100739.63;1087273;54;20034;-80
2021/10/09 15:30:29;;;;;;;11.73;7.32;;;;;;;17.17;46.70;100740.63;1087818;39;20709;-79
2021/10/09 15:31:31;;;;;;;10.40;6.80;;;;;;;17.14;46.77;100736.44;1087544;54;20062;-79
2021/10/09 15:32:35;;;;;;;13.73;7.68;;;;;;;17.12;46.89;100744.72;1087329;54;20046;-79
2021/10/09 15:33:39;;;;;;;17.38;8.27;;;;;;;17.15;47.01;100733.53;1087527;54;20825;-77
2021/10/09 15:34:43;;;;;;;13.18;7.68;;;;;;;17.14;47.58;100734.56;1087433;54;20026;-80
2021/10/09 15:35:48;;;;;;;11.00;7.10;;;;;;;17.14;47.46;100741.84;1087370;54;20030;-80
2021/10/09 15:36:50;;;;;;;14.20;7.45;;;;;;;17.17;47.28;100741.50;1087841;54;20042;-80
2021/10/09 15:37:55;;;;;;;11.15;7.28;;;;;;;17.15;47.62;100738.13;1087836;54;20042;-81
2021/10/09 15:38:56;;;;;;;11.10;7.30;;;;;;;17.15;47.81;100735.41;1087830;54;20042;-79
2021/10/09 15:40:00;;;;;;;12.27;7.35;;;;;;;17.15;47.96;100738.13;1092370;39;20583;-81
2021/10/09 15:41:05;;;;;;;13.57;7.57;;;;;;;17.16;48.13;100739.81;1087692;54;20037;-79
2021/10/09 15:42:07;;;;;;;11.32;7.75;;;;;;;17.08;48.09;100743.34;1087676;54;20038;-79
2021/10/09 15:43:11;;;;;;;12.02;7.65;;;;;;;17.11;47.97;100748.44;1087774;54;20031;-81
2021/10/09 15:44:12;;;;;;;11.38;7.40;;;;;;;17.10;48.18;100743.16;1087704;54;20034;-81
2021/10/09 15:45:18;;;;;;;11.50;7.35;;;;;;;17.06;48.47;100744.53;1087780;54;20042;-82
2021/10/09 15:46:23;;;;;;;11.65;7.53;;;;;;;17.08;48.43;100753.31;1087799;54;20094;-80
2021/10/09 15:47:25;;;;;;;10.55;7.75;;;;;;;17.03;48.84;100747.56;1087493;54;20042;-80
2021/10/09 15:48:29;;;;;;;12.25;7.32;;;;;;;17.02;48.90;100754.00;1087802;54;20042;-79
2021/10/09 15:49:31;;;;;;;12.52;8.43;;;;;;;16.91;48.95;100755.16;1087568;54;20030;-80
2021/10/09 15:50:38;;;;;;;11.48;7.28;;;;;;;16.89;49.12;100749.94;1087527;54;20031;-80
2021/10/09 15:51:40;;;;;;;12.48;7.88;;;;;;;16.90;49.29;100753.47;1087287;54;20030;-79
2021/10/09 15:52:44;;;;;;;12.82;7.97;;;;;;;16.88;49.14;100753.66;1087501;54;20050;-79
2021/10/09 15:53:46;;;;;;;12.95;8.00;;;;;;;16.87;48.63;100756.50;1087669;54;20339;-80
2021/10/09 15:54:50;;;;;;;17.05;8.38;;;;;;;16.80;49.14;100751.78;1087681;54;20010;-80
2021/10/09 15:55:54;;;;;;;13.88;8.55;;;;;;;16.80;48.85;100757.19;1087712;54;20034;-81
2021/10/09 15:56:56;;;;;;;11.85;8.07;;;;;;;16.76;49.13;100753.16;1087762;54;20049;-80
2021/10/09 15:58:00;;;;;;;12.23;7.90;;;;;;;16.74;48.97;100757.00;1087807;54;20031;-80
2021/10/09 15:59:02;;;;;;;13.13;7.65;;;;;;;16.69;49.21;100755.66;1087629;54;20035;-81
2021/10/09 16:00:09;;;;;;;11.90;7.53;;;;;;;16.69;49.28;100750.25;1087737;54;20027;-81
2021/10/09 16:01:13;;;;;;;12.07;7.75;;;;;;;16.73;49.16;100755.31;1087637;54;20709;-80
2021/10/09 16:02:15;;;;;;;14.15;7.90;;;;;;;16.71;49.57;100754.66;1087732;54;20034;-80
2021/10/09 16:03:19;;;;;;;12.20;7.40;;;;;;;16.67;49.21;100756.84;1087738;54;20030;-82
2021/10/09 16:04:23;;;;;;;15.82;7.93;;;;;;;16.67;49.52;100759.56;1087581;54;20090;-81
2021/10/09 16:05:28;;;;;;;15.65;6.60;;;;;;;16.70;49.59;100761.88;1087716;54;20860;-81
2021/10/09 16:06:35;;;;;;;13.07;7.60;;;;;;;16.67;49.31;100763.06;1088827;39;20614;-80
2021/10/09 16:07:40;;;;;;;9.68;7.57;;;;;;;16.69;49.51;100754.81;1087801;54;20063;-79
2021/10/09 16:08:44;;;;;;;9.85;7.55;;;;;;;16.66;49.62;100758.69;1087698;54;20057;-79
2021/10/09 16:09:49;;;;;;;12.10;7.72;;;;;;;16.64;49.21;100763.41;1087524;54;20057;-81
2021/10/09 16:10:53;;;;;;;13.15;7.90;;;;;;;16.67;49.61;100757.69;1087708;54;20030;-79
2021/10/09 16:11:55;;;;;;;12.60;8.13;;;;;;;16.61;49.82;100766.47;1087725;54;20031;-80
2021/10/09 16:12:59;;;;;;;11.15;9.07;;;;;;;16.56;49.98;100770.66;1087992;46;20053;-81
2021/10/09 16:14:06;;;;;;;14.23;8.07;;;;;;;16.58;50.15;100768.66;1088586;39;20249;-85
2021/10/09 16:15:12;;;;;;;13.95;8.07;;;;;;;16.50;50.19;100764.91;1087628;54;20031;-78
2021/10/09 16:16:14;;;;;;;11.57;7.20;;;;;;;16.50;50.38;100764.06;1087585;54;20041;-80
2021/10/09 16:17:22;;;;;;;15.13;8.48;;;;;;;16.46;50.21;100768.97;1089671;39;20330;-83
2021/10/09 16:18:27;;;;;;;15.70;9.43;;;;;;;16.42;50.42;100766.75;1087845;54;20094;-84
2021/10/09 16:19:28;;;;;;;14.73;10.73;;;;;;;16.43;50.64;100765.75;1087746;54;20031;-77
2021/10/09 16:20:32;;;;;;;14.43;9.15;;;;;;;16.42;50.36;100766.75;1087739;54;20037;-78
2021/10/09 16:21:39;;;;;;;18.23;11.27;;;;;;;16.33;50.67;100766.75;1087653;47;20030;-77
2021/10/09 16:22:41;;;;;;;14.10;8.95;;;;;;;16.27;50.44;100767.38;1087757;54;20047;-77
2021/10/09 16:23:45;;;;;;;11.60;7.85;;;;;;;16.24;50.57;100764.19;1087773;54;20041;-76
2021/10/09 16:24:47;;;;;;;13.98;8.18;;;;;;;16.26;50.48;100765.69;1087716;54;20030;-77
2021/10/09 16:25:51;;;;;;;14.25;8.75;;;;;;;16.20;51.08;100760.97;1088082;47;20098;-77
2021/10/09 16:26:53;;;;;;;11.30;7.57;;;;;;;16.21;51.07;100765.34;1087509;54;20038;-77
2021/10/09 16:27:57;;;;;;;12.90;8.23;;;;;;;16.22;50.87;100769.75;1087674;54;20042;-78
2021/10/09 16:29:01;;;;;;;12.45;7.80;;;;;;;16.15;51.16;100774.94;1087614;54;20014;-77
2021/10/09 16:30:06;;;;;;;13.73;7.85;;;;;;;16.16;51.22;100770.38;1087661;54;20014;-78
2021/10/09 16:31:09;;;;;;;13.60;8.05;;;;;;;16.08;51.13;100773.91;1094892;39;20658;-77
2021/10/09 16:32:13;;;;;;;11.10;7.45;;;;;;;16.06;51.27;100770.53;1094662;31;20729;-77
2021/10/09 16:33:17;;;;;;;13.23;8.10;;;;;;;16.05;51.24;100769.72;1088036;46;20034;-77
2021/10/09 16:34:19;;;;;;;15.13;7.72;;;;;;;16.07;51.19;100764.13;1087615;54;20026;-77
2021/10/09 16:35:23;;;;;;;10.82;7.85;;;;;;;15.99;51.46;100775.72;1087685;54;20057;-77
2021/10/09 16:36:24;;;;;;;16.02;8.57;;;;;;;15.96;51.65;100767.13;1087744;54;20029;-77
2021/10/09 16:37:31;;;;;;;15.65;8.25;;;;;;;15.95;51.62;100773.53;1087758;54;20034;-78
2021/10/09 16:38:33;;;;;;;14.63;9.10;;;;;;;15.96;51.76;100769.81;1087553;54;20818;-77
2021/10/09 16:39:37;;;;;;;10.60;7.70;;;;;;;15.87;51.84;100777.88;1087737;54;20098;-78
2021/10/09 16:40:41;;;;;;;16.00;7.70;;;;;;;15.87;51.89;100772.47;1087578;54;20034;-77
2021/10/09 16:41:43;;;;;;;17.35;8.80;;;;;;;15.82;51.70;100774.78;1087709;54;20019;-77
2021/10/09 16:42:47;;;;;;;14.18;7.57;;;;;;;15.79;51.95;100775.13;1087709;54;20038;-77
2021/10/09 16:43:48;;;;;;;12.77;7.95;;;;;;;15.76;52.08;100786.22;1087488;54;22067;-78
2021/10/09 16:44:53;;;;;;;13.52;7.25;;;;;;;15.69;51.84;100782.47;1087671;54;20031;-78
2021/10/09 16:45:54;;;;;;;11.77;7.38;;;;;;;15.71;52.12;100789.38;1087642;54;20047;-78
2021/10/09 16:46:58;;;;;;;11.00;7.50;;;;;;;15.65;52.03;100784.66;1087670;54;20034;-76
2021/10/09 16:48:00;;;;;;;12.25;7.32;;;;;;;15.62;52.08;100784.13;1087647;54;20034;-77
2021/10/09 16:49:04;;;;;;;11.98;7.38;;;;;;;15.57;52.05;100790.00;1087653;54;20034;-78
2021/10/09 20:01:30;;;;;;;14.20;7.05;;;;;;;12.75;58.25;100884.25;1089353;46;20045;-76
2021/10/09 20:02:37;;;;;;;11.20;6.47;;;;;;;12.80;57.98;100892.72;1087696;54;20045;-77
2021/10/09 20:03:42;;;;;;;10.60;7.18;;;;;;;12.72;58.35;100884.53;1087666;54;20034;-76
2021/10/09 20:04:43;;;;;;;12.88;7.88;;;;;;;12.71;58.55;100893.56;1087741;54;20037;-76
2021/10/09 20:05:47;;;;;;;13.23;8.77;;;;;;;12.72;58.59;100889.91;1087783;54;20274;-79
2021/10/09 20:06:49;;;;;;;14.30;8.05;;;;;;;12.71;58.54;100882.84;1087832;54;20034;-77
2021/10/09 20:07:53;;;;;;;12.35;7.13;;;;;;;12.75;58.44;100884.25;1087774;54;20034;-76
2021/10/09 20:08:57;;;;;;;12.27;8.27;;;;;;;12.75;58.24;100885.09;1087578;54;20030;-77
2021/10/09 20:10:11;;;;;;;10.88;7.25;;;;;;;12.77;58.29;100883.13;1087697;54;20027;-79
2021/10/09 20:11:19;;;;;;;14.02;8.38;;;;;;;12.69;58.36;100884.78;1087640;54;20726;-78
2021/10/09 20:12:42;;;;;;;13.45;7.43;;;;;;;12.71;58.48;100877.47;1087834;54;20046;-76
2021/10/09 20:13:43;;;;;;;14.90;8.57;;;;;;;12.63;58.53;100887.06;1087834;54;20035;-76
2021/10/09 20:14:47;;;;;;;13.32;8.23;;;;;;;12.60;58.75;100892.69;1087656;54;20728;-76
2021/10/09 20:15:53;;;;;;;14.25;8.13;;;;;;;12.57;58.57;100890.28;1087762;54;20333;-78
2021/10/09 20:16:54;;;;;;;15.35;8.65;;;;;;;12.56;58.70;100888.59;1087870;54;20115;-77
2021/10/09 20:18:04;;;;;;;12.18;8.23;;;;;;;12.57;58.72;100892.13;1087712;54;20359;-77
2021/10/09 20:19:05;;;;;;;11.47;8.43;;;;;;;12.56;58.38;100893.97;1087876;54;20061;-77
2021/10/09 20:20:14;;;;;;;13.55;8.88;;;;;;;12.55;58.64;100891.41;1087662;54;20352;-78
2021/10/09 20:21:19;;;;;;;14.85;9.13;;;;;;;12.51;58.50;100888.16;1087768;54;20058;-77
2021/10/09 20:22:20;;;;;;;15.27;8.35;;;;;;;12.48;58.45;100893.78;1087856;54;20030;-77
2021/10/09 20:23:27;;;;;;;14.23;9.40;;;;;;;12.44;58.50;100898.56;1088016;47;20043;-76
2021/10/09 20:24:29;;;;;;;14.70;8.85;;;;;;;12.38;58.31;100887.53;1087775;54;20098;-78
2021/10/09 20:25:35;;;;;;;14.52;9.05;;;;;;;12.32;58.53;100889.78;1091024;39;20752;-78
2021/10/09 20:26:37;;;;;;;19.83;13.25;;;;;;;12.29;58.84;100895.41;1087595;54;20045;-77
2021/10/09 20:27:41;;;;;;;18.80;11.75;;;;;;;12.24;58.65;100894.97;1087828;54;20030;-77
2021/10/09 20:28:43;;;;;;;16.30;11.23;;;;;;;12.23;58.75;100898.63;1087568;54;20042;-77
2021/10/09 20:29:47;;;;;;;20.95;14.10;;;;;;;12.21;58.63;100899.75;1087695;54;20094;-77
2021/10/09 20:30:51;;;;;;;16.58;10.32;;;;;;;12.12;58.97;100899.59;1087724;54;20030;-78
2021/10/09 20:31:53;;;;;;;13.70;10.25;;;;;;;12.06;58.77;100894.75;1087494;54;20047;-77
2021/10/09 20:32:58;;;;;;;15.90;10.50;;;;;;;12.05;58.77;100895.72;1088539;31;20581;-77
2021/10/09 20:34:02;;;;;;;14.30;9.95;;;;;;;12.01;59.04;100897.81;1087767;54;20035;-77
2021/10/09 20:35:07;;;;;;;15.02;8.80;;;;;;;11.99;58.82;100898.94;1087668;54;20060;-78
2021/10/09 20:36:08;;;;;;;13.07;8.25;;;;;;;12.03;58.90;100900.41;1087556;54;20030;-77
2021/10/09 20:37:12;;;;;;;12.68;8.75;;;;;;;12.02;58.70;100898.69;1087750;54;20038;-77
2021/10/09 20:38:16;;;;;;;13.30;8.98;;;;;;;12.00;59.06;100895.28;1087501;54;20055;-78
2021/10/09 20:39:18;;;;;;;13.40;7.65;;;;;;;12.04;58.86;100890.50;1087708;54;20061;-77
2021/10/09 20:40:23;;;;;;;13.32;8.35;;;;;;;12.00;59.01;100897.97;1087459;54;20042;-77
2021/10/09 20:41:25;;;;;;;13.60;8.02;;;;;;;12.04;58.92;100898.56;1087751;54;20030;-77
2021/10/09 20:42:29;;;;;;;12.48;7.78;;;;;;;12.05;58.95;100893.03;1088646;39;20498;-77
2021/10/09 20:43:32;;;;;;;13.45;7.68;;;;;;;12.08;58.92;100894.63;1088166;46;20407;-77
2021/10/09 20:44:37;;;;;;;13.35;7.88;;;;;;;12.07;58.79;100903.66;1087716;54;20039;-77
2021/10/09 20:45:41;;;;;;;12.50;8.93;;;;;;;12.11;58.92;100897.03;1088001;39;20463;-77
2021/10/09 20:46:42;;;;;;;14.98;9.10;;;;;;;12.15;58.84;100906.50;1087766;54;20034;-77
2021/10/09 20:47:47;;;;;;;13.50;8.98;;;;;;;12.18;58.81;100914.28;1087810;54;20039;-78
2021/10/09 20:48:48;;;;;;;12.48;9.05;;;;;;;12.16;58.70;100910.88;1087506;54;20030;-77
2021/10/09 20:49:55;;;;;;;14.00;9.50;;;;;;;12.17;58.87;100915.28;1087581;54;20053;-77
2021/10/09 20:50:57;;;;;;;11.93;7.95;;;;;;;12.19;58.94;100909.75;1087361;54;20037;-76
2021/10/09 20:52:01;;;;;;;12.10;8.75;;;;;;;12.19;58.83;100909.75;1087732;54;20035;-77
2021/10/09 20:53:05;;;;;;;12.57;8.05;;;;;;;12.17;59.29;100907.22;1088741;39;20214;-76
2021/10/09 20:54:07;;;;;;;12.63;8.30;;;;;;;12.14;59.14;100907.50;1087689;54;20034;-77
2021/10/09 20:55:12;;;;;;;14.82;9.02;;;;;;;12.11;59.30;100910.44;1087504;54;20038;-77
2021/10/09 20:56:13;;;;;;;14.68;8.50;;;;;;;12.08;59.77;100910.72;1089611;39;20245;-77
2021/10/09 20:57:17;;;;;;;11.90;8.02;;;;;;;12.04;59.92;100906.59;1087752;54;20107;-77
2021/10/09 20:58:22;;;;;;;10.30;7.60;;;;;;;12.05;59.85;100919.00;1087505;54;20058;-78
2021/10/09 20:59:26;;;;;;;13.50;8.45;;;;;;;11.99;60.19;100905.19;1087741;54;20014;-77
2021/10/09 21:00:27;;;;;;;11.27;7.68;;;;;;;11.96;60.29;100909.88;1087507;54;20041;-77
2021/10/09 21:01:32;;;;;;;11.75;8.88;;;;;;;11.90;60.42;100903.25;1087594;54;20073;-77
2021/10/09 21:02:37;;;;;;;16.38;9.15;;;;;;;11.83;60.61;100916.31;1087688;54;20034;-77
2021/10/09 21:03:41;;;;;;;14.20;8.68;;;;;;;11.84;60.73;100917.16;1088020;47;20769;-77
2021/10/09 21:04:43;;;;;;;12.48;8.00;;;;;;;11.81;60.72;100915.59;1087523;54;20041;-77
2021/10/09 21:05:50;;;;;;;13.45;8.10;;;;;;;11.82;60.45;100916.44;1087573;54;20042;-77
2021/10/09 21:06:52;;;;;;;11.90;7.53;;;;;;;11.81;60.58;100917.41;1087433;54;20055;-76
2021/10/09 21:07:56;;;;;;;16.30;8.52;;;;;;;11.75;60.54;100915.28;1087490;54;20058;-76
2021/10/09 21:09:00;;;;;;;11.75;7.75;;;;;;;11.74;60.75;100918.94;1087624;54;20030;-77
2021/10/09 21:10:09;;;;;;;10.85;8.45;;;;;;;11.71;60.57;100917.38;1087459;54;20042;-77
2021/10/09 21:11:20;;;;;;;13.50;8.50;;;;;;;11.68;60.57;100913.13;1087591;54;20073;-76
2021/10/09 21:12:29;;;;;;;11.95;8.32;;;;;;;11.58;60.89;100914.88;1087384;54;20042;-76
2021/10/09 21:22:49;;;;;;;11.32;8.25;;;;;;;11.41;61.39;100904.75;1087641;54;20034;-77
2021/10/09 21:23:53;;;;;;;9.55;7.22;;;;;;;11.43;61.22;100897.47;1087355;54;20030;-77
2021/10/09 21:24:55;;;;;;;10.50;7.78;;;;;;;11.44;61.09;100909.84;1088004;39;20676;-78
2021/10/09 21:25:59;;;;;;;12.77;7.30;;;;;;;11.46;61.13;100906.06;1087691;54;20065;-77
2021/10/09 21:27:04;;;;;;;13.75;8.32;;;;;;;11.44;60.95;100901.81;1087673;54;20043;-77
2021/10/09 21:28:08;;;;;;;12.55;8.30;;;;;;;11.48;60.77;100905.94;1087674;54;20061;-77
2021/10/09 21:29:10;;;;;;;12.02;8.13;;;;;;;11.45;60.95;100900.84;1087600;54;20030;-78
2021/10/09 21:30:14;;;;;;;12.63;7.28;;;;;;;11.46;60.73;100905.22;1087368;54;20061;-78
2021/10/09 21:31:16;;;;;;;10.57;7.68;;;;;;;11.47;60.82;100909.59;1087608;54;20050;-77
2021/10/09 21:32:20;;;;;;;10.18;7.13;;;;;;;11.49;60.46;100897.75;1087591;54;20045;-76
2021/10/09 21:33:22;;;;;;;11.98;7.30;;;;;;;11.50;60.40;100904.81;1087705;54;20039;-78
2021/10/09 21:34:26;;;;;;;10.82;6.88;;;;;;;11.57;60.38;100907.84;1087695;54;20096;-77
2021/10/09 21:35:30;;;;;;;9.27;6.40;;;;;;;11.60;60.39;100899.53;1087385;54;20054;-78
2021/10/09 21:36:37;;;;;;;11.32;7.60;;;;;;;11.59;60.03;100905.88;1087707;54;20037;-77
2021/10/09 21:37:41;;;;;;;11.60;7.15;;;;;;;11.62;60.05;100896.72;1087720;54;20031;-77
2021/10/09 21:38:43;;;;;;;10.20;7.13;;;;;;;11.58;60.33;100901.50;1087614;54;20035;-77
2021/10/09 21:39:47;;;;;;;12.30;7.57;;;;;;;11.53;60.42;100899.22;1087615;54;20031;-77
2021/10/09 21:40:51;;;;;;;9.20;7.00;;;;;;;11.51;60.23;100905.69;1087645;54;20034;-77
2021/10/09 21:41:53;;;;;;;9.70;6.57;;;;;;;11.51;60.64;100905.69;1087409;54;20056;-78
2021/10/09 21:42:57;;;;;;;11.88;7.72;;;;;;;11.45;60.50;100906.19;1087688;54;20042;-77
2021/10/09 21:43:59;;;;;;;11.07;7.03;;;;;;;11.43;60.88;100900.97;1087618;54;20035;-77
2021/10/09 21:45:04;;;;;;;11.05;7.35;;;;;;;11.39;60.74;100903.06;1090129;39;20722;-77
2021/10/09 21:46:08;;;;;;;10.35;7.30;;;;;;;11.38;60.55;100900.53;1087630;54;20025;-77
2021/10/09 21:47:12;;;;;;;9.82;7.25;;;;;;;11.37;60.86;100909.53;1087387;54;20107;-77
2021/10/09 21:48:14;;;;;;;12.02;7.43;;;;;;;11.33;60.78;100892.88;1088062;46;20038;-77
2021/10/09 21:49:18;;;;;;;14.40;7.32;;;;;;;11.34;60.60;100896.38;1088009;54;20038;-77
2021/10/09 21:50:22;;;;;;;12.82;7.72;;;;;;;11.26;60.95;100899.69;1087992;54;20029;-77
2021/10/09 21:51:24;;;;;;;14.32;7.68;;;;;;;11.26;60.53;100896.19;1087693;54;20041;-77
2021/10/09 21:52:32;;;;;;;13.27;6.68;;;;;;;11.24;60.79;100897.16;1087923;54;20111;-77
2021/10/09 21:53:33;;;;;;;9.63;6.68;;;;;;;11.30;60.36;100895.81;1087671;54;20019;-76
2021/10/09 21:54:38;;;;;;;10.18;6.88;;;;;;;11.28;60.55;100894.25;1087942;54;20031;-77
2021/10/09 21:55:39;;;;;;;11.30;6.43;;;;;;;11.28;60.69;100894.25;1089883;46;20038;-77
2021/10/09 21:56:46;;;;;;;10.90;7.75;;;;;;;11.26;60.51;100891.66;1087992;54;20034;-78
2021/10/09 21:57:53;;;;;;;11.45;7.30;;;;;;;11.24;60.87;100893.66;1087964;54;20019;-77
2021/10/09 21:59:05;;;;;;;10.35;7.10;;;;;;;11.23;60.69;100897.31;1087743;54;20055;-77
2021/10/09 22:00:51;;;;;;;10.77;7.07;;;;;;;11.17;61.07;100893.31;1088849;39;20510;-78
2021/10/09 22:02:01;;;;;;;11.90;7.53;;;;;;;11.13;61.34;100899.03;1087781;54;20030;-76
2021/10/09 22:03:08;;;;;;;11.07;7.20;;;;;;;11.12;61.36;100910.72;1087939;54;20045;-77
2021/10/09 22:17:19;;;;;;;9.88;6.75;;;;;;;11.11;61.46;100899.16;1087294;54;20034;-76
2021/10/09 22:18:25;;;;;;;11.65;6.20;;;;;;;11.08;61.26;100900.25;1089171;46;20034;-77
2021/10/09 22:19:35;;;;;;;9.73;6.20;;;;;;;11.10;61.09;100900.13;1087801;54;20046;-77
2021/10/09 22:21:07;;;;;;;17.67;7.63;;;;;;;11.05;61.25;100900.50;1087921;54;20043;-76
2021/10/09 22:32:47;;;;;;;10.55;6.10;;;;;;;10.84;60.55;100886.25;1087858;54;20057;-77
2021/10/09 22:33:49;;;;;;;11.63;6.53;;;;;;;10.86;60.73;100886.97;1087919;54;20034;-76
2021/10/09 22:34:53;;;;;;;11.73;7.22;;;;;;;10.84;60.52;100892.44;1087656;54;20094;-76
2021/10/09 22:35:57;;;;;;;12.27;7.22;;;;;;;10.79;60.75;100886.63;1087909;54;20038;-77
2021/10/09 22:36:58;;;;;;;9.57;6.72;;;;;;;10.81;60.63;100887.34;1087885;54;20042;-76
2021/10/09 22:38:02;;;;;;;11.20;7.10;;;;;;;10.84;60.60;100886.25;1087853;54;20038;-77
2021/10/09 22:39:07;;;;;;;10.13;6.18;;;;;;;10.85;60.53;100888.78;1090488;39;20598;-76
2021/10/09 22:40:13;;;;;;;9.45;5.97;;;;;;;10.87;60.61;100892.19;1087874;54;20057;-76
2021/10/09 22:41:18;;;;;;;14.32;6.57;;;;;;;10.78;60.78;100890.28;1087670;54;20707;-76
2021/10/09 22:42:19;;;;;;;10.45;6.20;;;;;;;10.84;60.94;100891.59;1090774;39;21037;-76
2021/10/09 22:43:26;;;;;;;10.35;7.25;;;;;;;10.72;61.20;100888.94;1087854;54;20038;-76
2021/10/09 22:44:29;;;;;;;11.73;7.45;;;;;;;10.75;61.39;100887.84;1087883;54;20074;-77
2021/10/09 22:45:33;;;;;;;11.75;6.82;;;;;;;10.75;61.51;100888.69;1087766;54;20737;-76
2021/10/09 22:46:35;;;;;;;8.23;5.80;;;;;;;10.80;61.71;100887.47;1088119;46;20046;-77
2021/10/09 22:47:40;;;;;;;10.70;6.28;;;;;;;10.83;61.60;100884.53;1087816;54;20031;-77
2021/10/09 22:48:41;;;;;;;10.82;6.75;;;;;;;10.83;61.55;100884.53;1087832;54;20035;-77
2021/10/09 22:49:45;;;;;;;8.50;5.63;;;;;;;10.86;61.28;100877.13;1087763;54;20035;-77
2021/10/09 22:50:47;;;;;;;9.02;5.82;;;;;;;10.87;61.37;100886.84;1088455;46;20030;-77
2021/10/09 22:51:52;;;;;;;9.50;6.30;;;;;;;10.88;61.34;100879.66;1087628;54;20050;-77
2021/10/09 22:52:56;;;;;;;15.52;7.75;;;;;;;10.52;62.38;100881.69;1087739;54;20042;-78
2021/10/09 22:53:57;;;;;;;13.00;8.40;;;;;;;10.44;62.83;100885.84;1087882;54;20034;-78
2021/10/09 22:55:04;;;;;;;12.23;7.55;;;;;;;10.45;63.21;100884.00;1087830;54;20780;-78
2021/10/09 22:56:08;;;;;;;11.93;8.23;;;;;;;10.41;63.10;100886.06;1087848;54;20038;-76
2021/10/09 22:57:10;;;;;;;13.00;8.55;;;;;;;10.32;63.28;100886.78;1087837;54;20037;-78
2021/10/09 22:58:14;;;;;;;16.10;8.90;;;;;;;10.31;63.40;100887.75;1087792;54;20061;-80
2021/10/09 22:59:15;;;;;;;11.27;8.23;;;;;;;10.32;63.48;100881.44;1087505;54;20035;-77
2021/10/09 23:00:20;;;;;;;12.75;8.43;;;;;;;10.43;63.18;100891.31;1088891;46;20027;-76
2021/10/09 23:01:21;;;;;;;12.82;8.00;;;;;;;10.50;62.95;100889.84;1087776;54;20046;-78
2021/10/09 23:02:25;;;;;;;12.23;7.80;;;;;;;10.52;63.15;100884.38;1087880;54;20769;-79
2021/10/09 23:03:27;;;;;;;11.75;7.13;;;;;;;10.55;62.91;100886.78;1087826;54;20034;-76
2021/10/09 23:04:31;;;;;;;15.38;7.82;;;;;;;10.49;63.17;100876.56;1087569;54;20041;-76